Time;durP1;ratioP1;P1;durP2;ratioP2;P2;SDS_P1;SDS_P2;PMS_P1;PMS_P2;Temp;Humidity;BMP_temperature;BMP_pressure;BME280_temperature;BME280_humidity;BME280_pressure;Samples;Min_cycle;Max_cycle;Signal;HPM_P1;HPM_P2
2023/03/31 00:02:20;;;;;;;;;3.00;2.50;;;;;14.17;55.96;100047.69;5073762;28;45440;-73
2023/03/31 00:04:51;;;;;;;;;11.25;3.50;;;;;14.16;56.25;100048.59;5075038;27;45504;-73
2023/03/31 00:07:20;;;;;;;;;6.75;2.75;;;;;14.17;56.33;100055.63;5073372;27;46341;-73
2023/03/31 00:09:47;;;;;;;;;7.50;4.00;;;;;14.18;56.01;100056.50;5074456;28;45456;-74
2023/03/31 00:12:16;;;;;;;;;5.00;3.75;;;;;14.17;56.16;100060.91;5075890;27;45521;-74
2023/03/31 00:14:42;;;;;;;;;0.00;0.00;;;;;14.14;56.17;100069.81;5048933;28;45535;-72
2023/03/31 00:17:08;;;;;;;;;5.00;2.00;;;;;14.11;56.03;100069.06;5075051;27;45623;-74
2023/03/31 00:19:35;;;;;;;;;4.50;2.75;;;;;14.12;56.64;100069.03;5069746;28;46500;-73
2023/03/31 00:22:00;;;;;;;;;3.00;2.00;;;;;14.12;56.58;100063.75;5074057;27;45437;-73
2023/03/31 00:24:27;;;;;;;;;5.75;3.25;;;;;14.10;56.66;100047.09;5071991;27;46243;-73
2023/03/31 00:26:52;;;;;;;;;4.25;3.00;;;;;14.10;57.00;100031.22;5072948;28;45480;-73
2023/03/31 00:29:18;;;;;;;;;3.25;3.25;;;;;14.01;56.69;99977.91;5073599;27;45276;-72
2023/03/31 00:31:43;;;;;;;;;4.50;3.00;;;;;14.03;56.60;99963.72;5071792;27;45475;-73
2023/03/31 00:34:08;;;;;;;;;4.75;2.75;;;;;14.01;56.76;99957.63;5072147;27;45612;-72
2023/03/31 00:36:35;;;;;;;;;4.25;3.00;;;;;14.01;57.10;99925.91;5074504;27;45874;-71
2023/03/31 00:39:07;;;;;;;;;3.00;2.75;;;;;13.95;56.63;99931.50;5073615;27;45446;-72
2023/03/31 00:41:32;;;;;;;;;2.00;1.00;;;;;13.90;56.66;99928.16;5075183;27;45733;-73
2023/03/31 00:44:11;;;;;;;;;4.75;2.25;;;;;13.87;56.57;99915.09;5074700;27;45485;-71
2023/03/31 00:46:39;;;;;;;;;5.00;4.75;;;;;13.82;57.21;99941.66;5074180;27;45537;-72
2023/03/31 00:49:15;;;;;;;;;2.00;2.00;;;;;13.74;57.42;99927.94;5070874;27;45368;-72
2023/03/31 00:51:42;;;;;;;;;4.75;4.75;;;;;13.73;57.17;99937.63;5074911;27;45239;-72
2023/03/31 00:54:07;;;;;;;;;2.00;2.00;;;;;13.70;57.35;99914.00;5073486;27;45488;-73
2023/03/31 00:56:38;;;;;;;;;2.75;1.00;;;;;13.65;57.53;99897.47;5073948;27;47601;-72
2023/03/31 00:59:07;;;;;;;;;3.25;3.25;;;;;13.63;57.17;99902.81;5074526;27;45456;-73
2023/03/31 01:01:34;;;;;;;;;5.75;3.00;;;;;13.59;57.28;99874.81;5072004;27;45487;-73
2023/03/31 01:04:01;;;;;;;;;5.50;3.00;;;;;13.53;57.73;99871.56;5074527;27;46361;-74
2023/03/31 01:06:29;;;;;;;;;3.75;2.00;;;;;13.58;57.54;99891.56;5069398;27;46393;-73
2023/03/31 01:08:56;;;;;;;;;2.50;2.25;;;;;13.55;57.61;99864.47;5073624;27;45459;-73
2023/03/31 01:11:26;;;;;;;;;4.75;2.00;;;;;13.50;57.73;99864.63;5070902;27;45840;-73
2023/03/31 01:13:54;;;;;;;;;5.00;4.00;;;;;13.46;58.42;99857.78;5056963;28;45620;-73
2023/03/31 01:16:21;;;;;;;;;5.50;4.50;;;;;13.44;57.96;99872.78;5072849;28;47125;-73
2023/03/31 01:18:48;;;;;;;;;3.00;3.00;;;;;13.44;58.17;99856.97;5070628;27;45572;-75
2023/03/31 01:21:29;;;;;;;;;2.75;1.00;;;;;13.38;57.95;99844.00;5071632;27;45836;-74
2023/03/31 01:24:26;;;;;;;;;4.00;2.50;;;;;13.33;58.07;99833.59;5074092;28;45490;-74
2023/03/31 01:27:24;;;;;;;;;5.00;4.00;;;;;13.30;58.19;99836.38;5072793;28;45993;-73
2023/03/31 01:30:27;;;;;;;;;4.50;1.00;;;;;13.29;58.06;99843.41;5073483;28;45925;-74
2023/03/31 01:33:17;;;;;;;;;7.00;3.00;;;;;13.25;58.42;99849.75;5074046;28;45338;-73
2023/03/31 01:35:45;;;;;;;;;4.00;3.00;;;;;13.22;58.32;99822.63;5071161;28;45561;-73
2023/03/31 01:38:19;;;;;;;;;6.75;4.50;;;;;13.21;58.43;99808.56;5064914;28;46612;-73
2023/03/31 01:41:00;;;;;;;;;4.25;3.00;;;;;13.22;58.28;99812.94;5071811;28;46477;-73
2023/03/31 01:43:33;;;;;;;;;3.00;2.25;;;;;13.22;58.37;99793.59;5060058;28;45580;-73
2023/03/31 01:46:15;;;;;;;;;3.50;3.00;;;;;13.20;58.40;99803.38;5065325;28;45432;-73
2023/03/31 01:49:12;;;;;;;;;5.75;2.75;;;;;13.20;58.19;99798.94;5071599;27;46409;-73
2023/03/31 01:51:50;;;;;;;;;1.75;1.00;;;;;13.21;58.36;99798.03;5036664;28;45507;-73
2023/03/31 01:54:36;;;;;;;;;3.00;2.00;;;;;13.22;58.71;99793.59;5070698;28;45458;-73
2023/03/31 01:57:16;;;;;;;;;4.00;3.75;;;;;13.20;58.45;99780.47;5071674;27;45272;-73
2023/03/31 02:00:04;;;;;;;;;4.00;2.00;;;;;13.18;58.43;99779.66;5059516;28;45505;-73
2023/03/31 02:02:36;;;;;;;;;4.25;3.00;;;;;13.17;58.88;99770.91;5072912;28;46570;-73
2023/03/31 02:05:08;;;;;;;;;2.75;2.75;;;;;13.21;58.73;99761.09;5073240;27;45464;-73
2023/03/31 02:07:38;;;;;;;;;6.50;3.50;;;;;13.16;58.69;99748.06;5070286;27;45465;-74
2023/03/31 02:10:07;;;;;;;;;1.25;1.00;;;;;13.22;58.89;99749.63;5071726;28;46659;-73
2023/03/31 02:12:34;;;;;;;;;4.75;2.25;;;;;13.23;58.72;99746.06;5072604;27;46495;-72
2023/03/31 02:15:05;;;;;;;;;5.00;4.00;;;;;13.22;59.06;99743.47;5071693;28;45388;-73
2023/03/31 02:17:31;;;;;;;;;2.25;2.25;;;;;13.22;58.81;99730.28;5071486;27;45884;-73
2023/03/31 02:20:01;;;;;;;;;1.50;1.50;;;;;13.27;58.97;99729.19;5072399;27;46335;-73
2023/03/31 02:22:31;;;;;;;;;2.50;2.25;;;;;13.25;58.80;99724.91;5056549;28;45570;-73
2023/03/31 02:25:00;;;;;;;;;4.00;3.00;;;;;13.25;58.59;99725.75;5070466;28;45464;-73
2023/03/31 02:27:32;;;;;;;;;2.75;2.00;;;;;13.27;59.12;99723.91;5056422;28;45425;-73
2023/03/31 02:29:58;;;;;;;;;5.00;1.25;;;;;13.30;59.08;99717.66;5071535;28;46106;-73
2023/03/31 02:32:31;;;;;;;;;1.50;1.00;;;;;13.32;58.68;99734.28;5072390;27;45533;-73
2023/03/31 02:34:57;;;;;;;;;4.75;3.50;;;;;13.32;58.76;99734.28;5070926;28;45557;-73
2023/03/31 02:37:23;;;;;;;;;4.75;3.00;;;;;13.28;59.16;99715.06;5069337;28;45943;-73
2023/03/31 02:39:52;;;;;;;;;5.00;3.25;;;;;13.29;58.96;99703.56;5072441;27;45429;-73
2023/03/31 02:42:18;;;;;;;;;5.25;3.25;;;;;13.31;58.98;99696.47;5067609;27;46327;-73
2023/03/31 02:44:43;;;;;;;;;3.75;3.50;;;;;13.30;58.75;99697.38;5071636;28;45387;-73
2023/03/31 02:47:13;;;;;;;;;5.75;2.00;;;;;13.36;59.05;99683.09;5070102;27;45815;-73
2023/03/31 02:49:42;;;;;;;;;4.75;3.75;;;;;13.36;59.07;99676.94;5072007;28;46239;-73
2023/03/31 02:52:28;;;;;;;;;4.00;3.25;;;;;13.39;59.20;99668.94;5070844;27;45562;-73
2023/03/31 02:55:31;;;;;;;;;4.00;2.75;;;;;13.39;58.82;99659.22;5069531;28;45530;-73
2023/03/31 02:58:02;;;;;;;;;5.75;4.75;;;;;13.40;59.66;99644.28;5072712;28;46363;-73
2023/03/31 03:00:36;;;;;;;;;3.00;2.25;;;;;13.38;58.77;99632.91;5068717;28;45465;-71
2023/03/31 03:03:07;;;;;;;;;7.75;4.50;;;;;13.40;59.23;99631.06;5072214;27;45801;-73
2023/03/31 03:05:53;;;;;;;;;5.25;2.25;;;;;13.40;59.10;99631.91;5069707;27;45448;-73
2023/03/31 03:08:30;;;;;;;;;4.50;4.00;;;;;13.42;58.87;99638.00;5070259;27;46362;-73
2023/03/31 03:11:38;;;;;;;;;4.25;3.25;;;;;13.39;59.06;99639.91;5072388;28;45655;-73
2023/03/31 03:14:23;;;;;;;;;3.75;2.75;;;;;13.37;59.02;99625.88;5029426;28;45584;-73
2023/03/31 03:17:12;;;;;;;;;5.50;3.50;;;;;13.42;59.36;99626.56;5066305;28;45532;-73
2023/03/31 03:19:40;;;;;;;;;7.75;4.00;;;;;13.43;58.89;99615.97;5069516;28;45510;-73
2023/03/31 03:22:06;;;;;;;;;5.00;2.00;;;;;13.44;59.15;99624.72;5071078;27;46305;-73
2023/03/31 03:24:33;;;;;;;;;3.75;2.50;;;;;13.41;59.19;99631.00;5071792;27;45488;-72
2023/03/31 03:26:59;;;;;;;;;5.75;4.00;;;;;13.41;59.19;99623.09;5070663;27;45517;-72
2023/03/31 03:29:26;;;;;;;;;2.50;2.00;;;;;13.43;59.04;99618.59;5071808;27;45676;-72
2023/03/31 03:31:51;;;;;;;;;6.25;4.50;;;;;13.37;59.43;99612.69;5068115;28;46082;-73
2023/03/31 03:34:17;;;;;;;;;6.75;5.50;;;;;13.42;59.09;99618.66;5069472;28;45376;-72
2023/03/31 03:36:42;;;;;;;;;4.50;4.00;;;;;13.42;59.29;99619.53;5072956;27;45849;-72
2023/03/31 03:39:08;;;;;;;;;3.50;3.50;;;;;13.40;59.61;99620.53;5062862;28;45832;-73
2023/03/31 03:41:34;;;;;;;;;6.25;4.00;;;;;13.38;59.65;99606.53;5070583;27;46091;-72
2023/03/31 03:43:59;;;;;;;;;5.50;4.00;;;;;13.38;59.77;99602.09;5068423;28;45441;-71
2023/03/31 03:46:25;;;;;;;;;5.50;4.25;;;;;13.36;59.39;99596.00;5068924;28;45593;-73
2023/03/31 03:48:51;;;;;;;;;12.00;7.00;;;;;13.37;59.74;99591.56;5069215;27;46613;-72
2023/03/31 03:51:16;;;;;;;;;5.75;4.75;;;;;13.40;59.56;99578.31;5071658;27;46095;-72
2023/03/31 03:53:42;;;;;;;;;5.75;5.00;;;;;13.40;59.51;99581.78;5069346;27;45538;-73
2023/03/31 03:56:07;;;;;;;;;7.50;5.00;;;;;13.38;59.59;99582.78;5071367;27;45580;-73
2023/03/31 03:58:33;;;;;;;;;7.75;6.75;;;;;13.40;59.76;99589.69;5070550;28;45552;-72
2023/03/31 04:00:58;;;;;;;;;8.00;4.50;;;;;13.41;59.42;99574.72;5069663;27;45432;-72
2023/03/31 04:03:23;;;;;;;;;10.75;6.00;;;;;13.36;59.56;99564.34;5072570;27;45473;-73
2023/03/31 04:05:49;;;;;;;;;11.00;6.00;;;;;13.36;59.88;99559.06;5070491;28;45425;-72
2023/03/31 04:08:16;;;;;;;;;7.75;5.25;;;;;13.38;59.30;99569.59;5060670;28;45424;-73
2023/03/31 04:10:47;;;;;;;;;5.00;5.00;;;;;13.38;59.78;99570.44;5071060;27;45436;-72
2023/03/31 04:13:13;;;;;;;;;8.00;3.25;;;;;13.40;59.58;99576.50;5069591;27;45583;-73
2023/03/31 04:15:38;;;;;;;;;8.00;4.75;;;;;13.40;59.73;99565.94;5070813;27;45523;-72
2023/03/31 04:18:03;;;;;;;;;5.50;5.00;;;;;13.43;59.64;99550.00;5069138;27;45448;-73
2023/03/31 04:20:29;;;;;;;;;7.25;5.50;;;;;13.39;59.28;99544.91;5073109;27;46166;-73
2023/03/31 04:22:54;;;;;;;;;5.00;3.50;;;;;13.41;59.22;99557.13;5074561;27;45602;-73
2023/03/31 04:25:21;;;;;;;;;6.25;5.00;;;;;13.43;59.70;99546.47;5071842;27;46336;-73
2023/03/31 04:27:54;;;;;;;;;8.00;7.00;;;;;13.46;59.43;99564.84;5071969;27;45504;-73
2023/03/31 04:30:21;;;;;;;;;10.25;7.25;;;;;13.44;59.58;99577.22;5073079;28;45933;-73
2023/03/31 04:32:58;;;;;;;;;7.75;7.25;;;;;13.45;59.32;99573.66;5069656;28;45511;-72
2023/03/31 04:35:26;;;;;;;;;8.25;3.25;;;;;13.47;59.42;99577.06;5074825;27;45387;-73
2023/03/31 04:37:57;;;;;;;;;7.25;5.00;;;;;13.46;59.43;99568.31;5071110;28;45586;-72
2023/03/31 04:40:24;;;;;;;;;12.25;9.25;;;;;13.44;59.43;99558.75;5073370;27;46421;-71
2023/03/31 04:42:50;;;;;;;;;9.75;5.00;;;;;13.44;58.97;99553.47;5073271;28;45438;-73
2023/03/31 04:45:15;;;;;;;;;11.00;5.75;;;;;13.46;59.54;99573.59;5072695;27;45790;-72
2023/03/31 04:47:41;;;;;;;;;6.75;6.25;;;;;13.44;59.25;99571.94;5072235;27;45385;-73
2023/03/31 04:50:07;;;;;;;;;10.50;6.00;;;;;13.48;59.34;99561.19;5074295;27;45649;-73
2023/03/31 04:52:32;;;;;;;;;12.00;5.25;;;;;13.46;59.46;99567.47;5072632;28;45408;-73
2023/03/31 04:54:57;;;;;;;;;10.25;7.00;;;;;13.40;59.55;99536.09;5072492;28;45317;-72
2023/03/31 04:57:23;;;;;;;;;6.50;4.75;;;;;13.43;59.30;99600.13;5070319;27;45495;-72
2023/03/31 04:59:48;;;;;;;;;7.25;6.00;;;;;13.42;59.50;99564.09;5059584;28;45962;-73
2023/03/31 05:02:20;;;;;;;;;7.00;4.50;;;;;13.47;59.32;99555.97;5062144;28;49523;-72
2023/03/31 05:04:46;;;;;;;;;10.25;5.25;;;;;13.47;59.18;99562.13;5062249;28;45364;-73
2023/03/31 05:07:11;;;;;;;;;7.50;5.25;;;;;13.45;59.00;99553.41;5043948;28;45604;-72
2023/03/31 05:09:36;;;;;;;;;10.25;6.25;;;;;13.47;59.17;99567.41;5061795;28;45320;-72
2023/03/31 05:12:02;;;;;;;;;8.75;6.00;;;;;13.45;58.87;99552.56;5061843;28;45380;-72
2023/03/31 05:14:27;;;;;;;;;10.50;6.75;;;;;13.48;59.10;99562.97;5062134;28;45709;-73
2023/03/31 05:16:56;;;;;;;;;9.00;5.75;;;;;13.54;58.94;99553.94;5043900;28;45490;-72
2023/03/31 05:19:22;;;;;;;;;12.00;8.00;;;;;13.56;59.13;99549.41;5061634;28;46171;-72
2023/03/31 05:21:47;;;;;;;;;7.25;4.00;;;;;13.55;59.15;99545.09;5061830;28;45268;-73
2023/03/31 05:24:13;;;;;;;;;7.00;4.75;;;;;13.56;58.46;99560.84;5061976;28;45390;-72
2023/03/31 05:26:39;;;;;;;;;8.00;5.50;;;;;13.56;58.94;99512.47;5061912;28;45412;-71
2023/03/31 05:29:05;;;;;;;;;8.75;7.00;;;;;13.53;58.98;99533.72;5061402;28;46409;-72
2023/03/31 05:31:31;;;;;;;;;8.75;5.00;;;;;13.53;58.78;99529.28;5061019;28;45312;-72
2023/03/31 05:33:56;;;;;;;;;7.75;6.50;;;;;13.54;58.14;99535.44;5061794;28;45329;-72
2023/03/31 05:36:22;;;;;;;;;12.00;7.00;;;;;13.55;58.48;99534.53;5061832;28;45462;-72
2023/03/31 05:38:48;;;;;;;;;7.50;5.00;;;;;13.53;58.17;99528.47;5043270;28;46593;-73
2023/03/31 05:41:15;;;;;;;;;13.75;6.75;;;;;13.51;58.56;99532.94;5061466;28;45598;-72
2023/03/31 05:43:42;;;;;;;;;10.25;6.25;;;;;13.51;58.34;99528.53;5043374;28;45213;-73
2023/03/31 05:46:08;;;;;;;;;11.00;5.50;;;;;13.54;58.04;99519.63;5061513;28;45411;-72
2023/03/31 05:48:33;;;;;;;;;9.50;4.75;;;;;13.53;58.22;99520.53;5062716;28;45356;-71
2023/03/31 05:51:00;;;;;;;;;10.25;6.25;;;;;13.55;58.30;99545.94;5081678;28;45518;-72
2023/03/31 05:53:26;;;;;;;;;9.00;6.50;;;;;13.51;58.06;99510.06;5080044;28;45313;-72
2023/03/31 05:56:05;;;;;;;;;4.00;1.75;;;;;13.55;58.01;99532.75;5061407;28;45392;-71
2023/03/31 05:58:34;;;;;;;;;11.25;6.25;;;;;13.53;58.04;99528.47;5060994;28;46118;-72
2023/03/31 06:01:05;;;;;;;;;10.00;7.00;;;;;13.55;58.04;99526.63;5060732;28;45359;-71
2023/03/31 06:03:35;;;;;;;;;9.00;5.00;;;;;13.54;57.81;99530.16;5061258;28;45232;-72
2023/03/31 06:06:01;;;;;;;;;9.00;5.00;;;;;13.48;58.18;99515.47;5061097;28;45477;-72
2023/03/31 06:08:28;;;;;;;;;13.50;6.25;;;;;13.51;57.87;99531.16;5042829;28;45513;-72
2023/03/31 06:10:53;;;;;;;;;9.25;5.75;;;;;13.47;57.81;99522.53;5061066;28;45351;-72
2023/03/31 06:13:18;;;;;;;;;6.25;5.00;;;;;13.42;57.98;99521.88;5060801;28;45736;-73
2023/03/31 06:15:52;;;;;;;;;8.25;3.00;;;;;13.43;57.87;99531.53;5043236;28;45494;-73
2023/03/31 06:18:17;;;;;;;;;9.75;4.00;;;;;13.45;58.13;99534.94;5060946;28;46405;-72
2023/03/31 06:20:42;;;;;;;;;3.00;3.00;;;;;13.47;58.32;99532.22;5060819;28;45331;-70
2023/03/31 06:23:08;;;;;;;;;11.75;6.25;;;;;13.49;57.69;99544.41;5058109;27;45576;-72
2023/03/31 06:25:37;;;;;;;;;10.00;7.25;;;;;13.47;57.50;99526.94;5060028;28;45620;-72
2023/03/31 06:28:02;;;;;;;;;9.75;6.00;;;;;13.47;57.48;99541.00;5068558;28;46406;-71
2023/03/31 06:30:27;;;;;;;;;14.00;7.00;;;;;13.49;57.48;99522.47;5075199;28;45559;-68
2023/03/31 06:32:53;;;;;;;;;7.25;5.50;;;;;13.47;57.82;99524.31;5067577;28;45416;-68
2023/03/31 06:35:18;;;;;;;;;10.25;6.75;;;;;13.51;57.49;99531.16;5073999;28;45228;-66
2023/03/31 06:37:43;;;;;;;;;7.75;6.75;;;;;13.39;57.71;99522.00;5073709;28;46397;-69
2023/03/31 06:40:09;;;;;;;;;9.50;4.75;;;;;13.47;57.27;99529.56;5067168;28;45494;-71
2023/03/31 06:42:35;;;;;;;;;9.00;5.00;;;;;13.48;57.44;99561.19;5078885;28;45752;-71
2023/03/31 06:45:00;;;;;;;;;13.00;6.50;;;;;13.46;57.68;99525.25;5062524;28;45337;-74
2023/03/31 06:47:25;;;;;;;;;10.50;9.00;;;;;13.43;57.56;99520.97;5063978;28;45352;-73
2023/03/31 06:49:50;;;;;;;;;6.50;6.25;;;;;13.51;57.26;99544.38;5072863;28;45284;-73
2023/03/31 06:52:16;;;;;;;;;10.00;6.50;;;;;13.43;57.65;99539.44;5060912;28;52605;-73
2023/03/31 06:54:41;;;;;;;;;11.75;7.00;;;;;13.49;57.25;99543.56;5060359;28;45431;-74
2023/03/31 06:57:06;;;;;;;;;8.50;5.00;;;;;13.49;57.04;99533.00;5059872;28;45364;-73
2023/03/31 06:59:32;;;;;;;;;12.25;5.00;;;;;13.52;57.50;99547.84;5060483;28;45269;-73
2023/03/31 07:01:57;;;;;;;;;12.25;5.75;;;;;13.52;57.15;99540.81;5056059;28;46465;-74
2023/03/31 07:04:22;;;;;;;;;6.00;3.00;;;;;13.50;57.44;99529.47;5060454;28;45443;-73
2023/03/31 07:06:48;;;;;;;;;5.75;3.75;;;;;13.52;57.45;99535.53;5059999;28;45329;-73
2023/03/31 07:09:13;;;;;;;;;6.25;5.50;;;;;13.51;57.17;99541.72;5060045;28;45316;-73
2023/03/31 07:11:38;;;;;;;;;10.75;7.25;;;;;13.55;57.03;99531.91;5060200;28;45346;-74
2023/03/31 07:14:04;;;;;;;;;7.00;5.00;;;;;13.54;56.90;99509.91;5060030;28;45529;-73
2023/03/31 07:16:30;;;;;;;;;10.00;6.75;;;;;13.58;56.87;99556.34;5042244;28;48158;-73
2023/03/31 07:18:58;;;;;;;;;4.00;3.00;;;;;13.56;56.59;99520.38;5060200;28;45261;-74
2023/03/31 07:21:24;;;;;;;;;6.50;4.50;;;;;13.54;57.21;99528.38;5043224;28;46397;-73
2023/03/31 07:23:49;;;;;;;;;7.75;5.50;;;;;13.58;56.98;99526.47;5065377;28;45223;-74
2023/03/31 07:26:15;;;;;;;;;6.25;4.50;;;;;13.61;57.01;99527.19;5064502;28;45647;-73
2023/03/31 07:28:40;;;;;;;;;7.50;4.25;;;;;13.52;56.58;99485.38;5059617;28;45535;-74
2023/03/31 07:31:13;;;;;;;;;5.75;3.75;;;;;13.58;56.98;99551.06;5068233;28;45896;-74
2023/03/31 07:33:39;;;;;;;;;7.00;4.00;;;;;13.64;56.78;99539.38;5063889;28;45495;-74
2023/03/31 07:36:05;;;;;;;;;15.75;5.50;;;;;13.62;56.80;99552.66;5058182;28;46715;-73
2023/03/31 07:38:30;;;;;;;;;3.00;3.00;;;;;13.63;56.68;99530.63;5060028;28;45353;-74
2023/03/31 07:40:56;;;;;;;;;8.50;3.75;;;;;13.63;56.46;99535.03;5059642;28;45299;-73
2023/03/31 07:43:21;;;;;;;;;7.25;4.25;;;;;13.67;56.72;99531.31;5059800;28;45299;-74
2023/03/31 07:45:46;;;;;;;;;8.00;4.00;;;;;13.65;56.57;99533.19;5059565;28;46350;-74
2023/03/31 07:48:12;;;;;;;;;8.50;4.00;;;;;13.66;56.62;99537.53;5059837;28;45364;-73
2023/03/31 07:50:37;;;;;;;;;5.75;3.25;;;;;13.63;56.35;99546.44;5041455;28;45305;-73
2023/03/31 07:53:03;;;;;;;;;6.50;3.75;;;;;13.65;56.40;99546.38;5060041;28;45287;-74
2023/03/31 07:55:28;;;;;;;;;5.75;4.50;;;;;13.74;56.70;99537.19;5062844;28;45463;-74
2023/03/31 07:57:53;;;;;;;;;9.50;4.50;;;;;13.73;56.84;99525.75;5063153;28;45347;-73
2023/03/31 08:00:20;;;;;;;;;9.50;4.00;;;;;13.78;56.79;99551.94;5063192;28;45387;-73
2023/03/31 08:02:45;;;;;;;;;10.25;6.25;;;;;13.75;56.62;99552.94;5063205;28;45182;-74
2023/03/31 08:05:12;;;;;;;;;5.50;3.00;;;;;13.76;56.83;99536.19;5062843;28;46050;-73
2023/03/31 08:07:40;;;;;;;;;10.25;3.75;;;;;13.77;56.79;99534.38;5045817;28;45738;-73
2023/03/31 08:10:09;;;;;;;;;4.00;3.00;;;;;13.79;56.86;99545.72;5063071;28;45411;-72
2023/03/31 08:12:34;;;;;;;;;6.50;3.75;;;;;13.76;56.94;99545.84;5062611;28;45483;-74
2023/03/31 08:15:00;;;;;;;;;8.25;4.50;;;;;13.65;57.44;99523.47;5062795;28;45451;-73
2023/03/31 08:17:25;;;;;;;;;8.75;4.75;;;;;13.72;57.31;99529.34;5044894;28;46114;-72
2023/03/31 08:19:51;;;;;;;;;4.50;4.00;;;;;13.68;57.14;99534.81;5062967;28;45379;-74
2023/03/31 08:22:17;;;;;;;;;8.25;4.00;;;;;13.63;57.65;99545.56;5063725;28;45183;-73
2023/03/31 08:24:42;;;;;;;;;5.75;4.25;;;;;13.67;57.22;99535.75;5082998;28;46785;-73
2023/03/31 08:27:07;;;;;;;;;6.00;4.75;;;;;13.71;57.44;99529.38;5082676;28;45246;-73
2023/03/31 08:29:33;;;;;;;;;3.25;2.75;;;;;13.73;57.45;99552.13;5065153;28;45286;-73
2023/03/31 08:31:58;;;;;;;;;7.50;4.00;;;;;13.67;57.69;99547.13;5064842;28;45611;-73
2023/03/31 08:34:24;;;;;;;;;7.75;4.75;;;;;13.64;57.48;99542.84;5082992;28;45314;-74
2023/03/31 08:36:49;;;;;;;;;7.50;5.00;;;;;13.69;57.37;99524.19;5068707;28;45261;-73
2023/03/31 08:39:15;;;;;;;;;9.00;7.00;;;;;13.67;57.08;99535.75;5062818;28;45542;-73
2023/03/31 08:41:52;;;;;;;;;10.75;6.00;;;;;13.73;56.99;99548.66;5062628;28;45300;-73
2023/03/31 08:44:55;;;;;;;;;9.75;6.00;;;;;13.75;57.07;99531.81;5044298;28;47178;-73
2023/03/31 08:47:24;;;;;;;;;11.25;5.75;;;;;13.74;57.26;99524.81;5069503;28;45343;-74
2023/03/31 08:49:58;;;;;;;;;12.50;4.50;;;;;13.80;57.23;99526.34;5082541;28;45299;-74
2023/03/31 08:52:41;;;;;;;;;6.25;5.00;;;;;13.84;56.62;99558.72;5064438;28;45846;-74
2023/03/31 08:55:16;;;;;;;;;6.25;4.25;;;;;13.90;56.63;99530.25;5082391;28;45479;-73
2023/03/31 08:57:51;;;;;;;;;8.50;3.75;;;;;13.93;57.00;99538.00;5082393;28;45321;-73
2023/03/31 09:00:17;;;;;;;;;5.00;3.75;;;;;13.94;56.85;99533.59;5082685;28;45321;-71
2023/03/31 09:02:51;;;;;;;;;5.00;2.75;;;;;13.96;56.29;99537.88;5082425;28;45504;-73
2023/03/31 09:05:42;;;;;;;;;7.50;2.75;;;;;14.01;56.19;99545.56;5081118;28;45349;-73
2023/03/31 09:08:20;;;;;;;;;4.00;2.00;;;;;14.06;56.62;99525.09;5082266;28;45410;-73
2023/03/31 09:10:55;;;;;;;;;7.25;4.50;;;;;14.13;56.19;99520.38;5063587;28;45400;-72
2023/03/31 09:13:35;;;;;;;;;7.00;2.75;;;;;14.16;56.09;99535.22;5082494;28;45429;-72
2023/03/31 09:16:15;;;;;;;;;7.25;4.00;;;;;14.19;56.17;99522.72;5081995;28;45388;-72
2023/03/31 09:18:48;;;;;;;;;8.75;2.25;;;;;14.23;55.93;99521.63;5082293;28;45269;-73
2023/03/31 09:21:21;;;;;;;;;5.50;3.75;;;;;14.24;56.04;99525.97;5080286;28;45303;-73
2023/03/31 09:23:55;;;;;;;;;8.75;4.25;;;;;14.31;56.11;99523.88;5075428;28;45233;-72
2023/03/31 09:26:30;;;;;;;;;7.00;1.00;;;;;14.34;55.89;99552.81;5082287;28;45162;-72
2023/03/31 09:28:59;;;;;;;;;5.75;5.00;;;;;14.34;56.46;99525.53;5063525;28;46218;-72
2023/03/31 09:31:26;;;;;;;;;6.75;1.75;;;;;14.37;56.10;99530.66;5063971;28;45522;-72
2023/03/31 09:33:58;;;;;;;;;7.00;3.00;;;;;14.39;55.97;99520.84;5081837;28;45411;-73
2023/03/31 09:36:23;;;;;;;;;4.50;2.75;;;;;14.42;55.58;99518.94;5061803;28;45312;-72
2023/03/31 09:38:49;;;;;;;;;5.75;5.25;;;;;14.42;55.80;99502.22;5061403;28;45388;-73
2023/03/31 09:41:17;;;;;;;;;6.50;5.25;;;;;14.45;55.74;99573.41;5043992;28;45300;-73
2023/03/31 09:43:44;;;;;;;;;6.50;3.25;;;;;14.46;55.73;99509.94;5060033;28;45466;-72
2023/03/31 09:46:32;;;;;;;;;8.25;3.00;;;;;14.46;55.17;99498.50;5061358;28;47003;-72
2023/03/31 09:49:09;;;;;;;;;2.50;1.75;;;;;14.47;55.29;99516.06;5051161;28;45249;-72
2023/03/31 09:51:37;;;;;;;;;10.50;5.25;;;;;14.49;54.93;99527.44;5081511;28;45200;-71
2023/03/31 09:54:11;;;;;;;;;4.25;3.75;;;;;14.53;55.41;99510.47;5081560;28;45394;-74
2023/03/31 09:56:47;;;;;;;;;6.25;2.50;;;;;14.53;55.14;99531.63;5081565;28;46367;-74
2023/03/31 09:59:21;;;;;;;;;4.00;3.50;;;;;14.56;55.41;99512.09;5081482;28;45347;-74
2023/03/31 10:01:51;;;;;;;;;6.50;3.00;;;;;14.56;55.21;99515.59;5081474;28;45469;-74
2023/03/31 10:04:26;;;;;;;;;5.00;2.75;;;;;14.61;54.84;99495.06;5063152;28;45254;-73
2023/03/31 10:06:53;;;;;;;;;3.50;1.25;;;;;14.64;54.93;99507.31;5081282;28;45319;-73
2023/03/31 10:09:23;;;;;;;;;4.50;4.00;;;;;14.61;55.02;99503.00;5081175;28;45246;-73
2023/03/31 10:12:03;;;;;;;;;6.00;3.75;;;;;14.66;54.82;99494.03;5081410;28;45341;-73
2023/03/31 10:14:40;;;;;;;;;4.50;0.50;;;;;14.69;54.72;99504.44;5063031;28;45283;-74
2023/03/31 10:17:06;;;;;;;;;3.25;3.00;;;;;14.75;54.75;99504.13;5080914;28;46843;-74
2023/03/31 10:19:36;;;;;;;;;3.00;3.00;;;;;14.79;54.28;99526.81;5080939;28;45248;-73
2023/03/31 10:22:16;;;;;;;;;3.75;0.50;;;;;14.85;54.61;99502.72;5072578;28;45319;-72
2023/03/31 10:24:45;;;;;;;;;4.50;2.75;;;;;14.88;54.68;99504.34;5060770;28;45404;-73
2023/03/31 10:27:28;;;;;;;;;6.25;0.50;;;;;14.91;54.36;99499.75;5060489;28;46104;-73
2023/03/31 10:29:56;;;;;;;;;4.25;1.00;;;;;14.95;54.22;99495.16;5042757;28;45728;-73
2023/03/31 10:32:27;;;;;;;;;5.25;2.25;;;;;14.93;53.74;99550.78;5060869;28;45221;-73
2023/03/31 10:34:55;;;;;;;;;3.00;1.00;;;;;14.94;53.42;99498.72;5069192;28;45536;-72
2023/03/31 10:37:23;;;;;;;;;4.75;2.25;;;;;14.92;53.68;99495.34;5061707;28;46187;-72
2023/03/31 10:39:58;;;;;;;;;6.00;1.25;;;;;14.96;53.43;99488.94;5060584;28;45200;-73
2023/03/31 10:42:24;;;;;;;;;3.50;1.75;;;;;14.93;53.92;99503.19;5060636;28;45186;-74
2023/03/31 10:45:10;;;;;;;;;4.25;2.75;;;;;14.89;54.21;99495.47;5060624;28;45587;-73
2023/03/31 10:47:38;;;;;;;;;3.75;1.50;;;;;14.95;53.49;99492.50;5042575;28;48191;-74
2023/03/31 10:50:15;;;;;;;;;5.00;3.75;;;;;14.99;54.08;99512.56;5060038;28;45462;-74
2023/03/31 10:52:46;;;;;;;;;0.00;0.00;;;;;15.01;53.88;99509.88;5042609;28;45389;-73
2023/03/31 10:55:16;;;;;;;;;1.50;1.25;;;;;15.10;53.40;99531.38;5060041;28;45260;-73
2023/03/31 10:57:54;;;;;;;;;1.25;0.25;;;;;15.13;53.38;99571.88;5060130;28;46531;-73
2023/03/31 11:00:58;;;;;;;;;3.25;1.50;;;;;15.18;53.59;99507.19;5060553;28;45497;-73
2023/03/31 11:04:02;;;;;;;;;1.50;1.50;;;;;15.26;53.53;99522.66;5000102;28;45532;-72
2023/03/31 11:06:46;;;;;;;;;5.50;3.75;;;;;15.35;53.25;99572.44;5000960;28;45373;-73
2023/03/31 11:09:36;;;;;;;;;3.00;2.75;;;;;15.44;53.43;99502.28;5050666;28;47047;-75
2023/03/31 11:12:11;;;;;;;;;1.25;1.25;;;;;15.59;53.69;99484.72;5070356;28;45351;-72
2023/03/31 11:14:59;;;;;;;;;5.75;3.75;;;;;15.73;53.37;99486.59;5080489;28;45385;-73
2023/03/31 11:17:29;;;;;;;;;1.25;1.25;;;;;15.84;53.53;99525.78;5080360;28;45413;-72
2023/03/31 11:20:08;;;;;;;;;4.50;1.00;;;;;15.90;53.29;99512.19;5080487;28;45330;-73
2023/03/31 11:22:53;;;;;;;;;3.75;3.75;;;;;15.95;53.67;99552.53;5058194;28;45297;-72
2023/03/31 11:25:37;;;;;;;;;2.00;1.50;;;;;15.96;53.00;99503.03;5060029;28;45352;-73
2023/03/31 11:28:10;;;;;;;;;1.50;0.75;;;;;15.92;53.08;99487.31;5059109;28;45396;-73
2023/03/31 11:30:47;;;;;;;;;2.75;1.75;;;;;15.99;52.96;99484.31;5059621;28;45698;-72
2023/03/31 11:33:30;;;;;;;;;1.50;1.50;;;;;15.97;53.17;99497.63;5059949;28;45373;-73
2023/03/31 11:36:04;;;;;;;;;4.00;3.50;;;;;16.03;52.86;99492.00;5070207;28;45367;-73
2023/03/31 11:38:43;;;;;;;;;3.00;1.00;;;;;16.12;52.80;99493.28;5059831;28;45234;-73
2023/03/31 11:41:34;;;;;;;;;6.25;3.00;;;;;16.23;52.98;99484.72;5059672;28;46216;-72
2023/03/31 11:44:04;;;;;;;;;2.00;1.75;;;;;16.25;52.67;99478.38;5059638;28;45312;-74
2023/03/31 11:46:51;;;;;;;;;2.75;1.75;;;;;16.31;52.83;99497.53;5059804;28;45344;-74
2023/03/31 11:49:17;;;;;;;;;2.75;2.00;;;;;16.35;52.62;99499.91;5069468;28;45217;-73